createdAt,value
2019-06-15T00:00:05.032Z,21.20
2019-06-15T00:01:05.233Z,21.10
2019-06-15T00:02:05.038Z,21.10
2019-06-15T00:03:04.280Z,21.10
2019-06-15T00:04:04.490Z,21.10
2019-06-15T00:05:04.675Z,21.10
2019-06-15T00:06:05.073Z,21.10
2019-06-15T00:07:05.166Z,21.00
2019-06-15T00:08:04.990Z,21.00
2019-06-15T00:09:05.108Z,21.00
2019-06-15T00:10:04.982Z,21.00
2019-06-15T00:11:04.421Z,21.00
2019-06-15T00:12:04.735Z,21.00
2019-06-15T00:13:05.121Z,21.00
2019-06-15T00:14:04.800Z,21.00
2019-06-15T00:15:04.549Z,21.00
2019-06-15T00:16:05.051Z,21.00
2019-06-15T00:17:04.571Z,20.90
2019-06-15T00:18:04.609Z,20.90
2019-06-15T00:19:04.546Z,20.90
2019-06-15T00:20:05.179Z,20.90
2019-06-15T00:21:05.107Z,20.90
2019-06-15T00:22:04.711Z,20.90
2019-06-15T00:23:05.062Z,20.90
2019-06-15T00:24:05.038Z,20.90
2019-06-15T00:25:05.128Z,20.90
2019-06-15T00:26:04.529Z,20.80
2019-06-15T00:27:04.978Z,20.80
2019-06-15T00:28:04.838Z,20.80
2019-06-15T00:29:04.379Z,20.80
2019-06-15T00:30:04.887Z,20.80
2019-06-15T00:31:04.297Z,20.80
2019-06-15T00:32:04.630Z,20.70
2019-06-15T00:33:05.281Z,20.70
2019-06-15T00:34:04.465Z,20.70
2019-06-15T00:35:04.787Z,20.70
2019-06-15T00:36:04.949Z,20.70
2019-06-15T00:37:04.931Z,20.70
2019-06-15T00:38:05.130Z,20.60
2019-06-15T00:39:04.373Z,20.60
2019-06-15T00:40:04.462Z,20.60
2019-06-15T00:41:05.193Z,20.60
2019-06-15T00:42:04.367Z,20.60
2019-06-15T00:43:04.778Z,20.60
2019-06-15T00:44:10.287Z,20.60
2019-06-15T00:45:04.970Z,20.60
2019-06-15T00:46:05.140Z,20.60
2019-06-15T00:47:04.290Z,20.60
2019-06-15T00:48:05.162Z,20.60
2019-06-15T00:49:04.998Z,20.60
2019-06-15T00:50:05.048Z,20.60
2019-06-15T00:51:05.237Z,20.60
2019-06-15T00:52:05.015Z,20.60
2019-06-15T00:53:04.746Z,20.60
2019-06-15T00:54:05.063Z,20.60
2019-06-15T00:55:04.851Z,20.60
2019-06-15T00:56:04.628Z,20.60
2019-06-15T00:57:04.539Z,20.60
2019-06-15T00:58:04.918Z,20.60
2019-06-15T00:59:05.288Z,20.60
2019-06-15T01:00:04.413Z,20.60
2019-06-15T01:01:04.917Z,20.60
2019-06-15T01:02:04.840Z,20.60
2019-06-15T01:03:04.410Z,20.60
2019-06-15T01:04:05.257Z,20.50
2019-06-15T01:05:04.699Z,20.50
2019-06-15T01:06:04.387Z,20.50
2019-06-15T01:07:05.170Z,20.50
2019-06-15T01:08:05.007Z,20.50
2019-06-15T01:09:05.146Z,20.40
2019-06-15T01:10:05.121Z,20.40
2019-06-15T01:11:05.129Z,20.40
2019-06-15T01:12:04.241Z,20.40
2019-06-15T01:13:04.600Z,20.40
2019-06-15T01:14:05.275Z,20.40
2019-06-15T01:15:04.458Z,20.40
2019-06-15T01:16:05.023Z,20.40
2019-06-15T01:17:04.538Z,20.30
2019-06-15T01:18:04.679Z,20.30
2019-06-15T01:19:04.953Z,20.30
2019-06-15T01:20:04.490Z,20.30
2019-06-15T01:21:05.008Z,20.30
2019-06-15T01:22:05.229Z,20.30
2019-06-15T01:23:04.472Z,20.30
2019-06-15T01:24:04.277Z,20.30
2019-06-15T01:25:05.788Z,20.30
2019-06-15T01:26:04.797Z,20.30
2019-06-15T01:27:05.190Z,20.30
2019-06-15T01:28:04.860Z,20.30
2019-06-15T01:29:04.870Z,20.30
2019-06-15T01:30:04.631Z,20.30
2019-06-15T01:31:05.025Z,20.30
2019-06-15T01:32:04.884Z,20.20
2019-06-15T01:33:05.334Z,20.20
2019-06-15T01:34:04.675Z,20.20
2019-06-15T01:35:04.669Z,20.20
2019-06-15T01:36:05.290Z,20.20
2019-06-15T01:37:04.328Z,20.20
2019-06-15T01:38:04.614Z,20.10
2019-06-15T01:39:05.347Z,20.10
2019-06-15T01:40:04.663Z,20.10
2019-06-15T01:41:05.161Z,20.10
2019-06-15T01:42:04.595Z,20.10
2019-06-15T01:43:04.949Z,20.10
2019-06-15T01:44:04.444Z,20.00
2019-06-15T01:45:05.161Z,20.00
2019-06-15T01:46:04.591Z,20.00
2019-06-15T01:47:05.136Z,20.00
2019-06-15T01:48:04.431Z,20.00
2019-06-15T01:49:04.579Z,20.00
2019-06-15T01:50:05.265Z,20.00
2019-06-15T01:51:04.908Z,20.00
2019-06-15T01:52:05.124Z,19.90
2019-06-15T01:53:04.644Z,19.90
2019-06-15T01:54:04.888Z,19.90
2019-06-15T01:55:17.398Z,19.90
2019-06-15T01:56:04.909Z,19.90
2019-06-15T01:57:04.502Z,19.90
2019-06-15T01:58:05.092Z,19.90
2019-06-15T01:59:05.232Z,19.90
2019-06-15T02:00:04.525Z,19.90
2019-06-15T02:01:04.954Z,19.90
2019-06-15T02:02:14.735Z,19.90
2019-06-15T02:03:05.167Z,19.90
2019-06-15T02:04:04.589Z,19.80
2019-06-15T02:05:04.731Z,19.80
2019-06-15T02:06:04.952Z,19.80
2019-06-15T02:07:05.298Z,19.80
2019-06-15T02:08:05.079Z,19.80
2019-06-15T02:09:04.834Z,19.80
2019-06-15T02:10:05.123Z,19.80
2019-06-15T02:11:05.352Z,19.80
2019-06-15T02:12:04.773Z,19.80
2019-06-15T02:13:04.474Z,19.70
2019-06-15T02:14:05.175Z,19.70
2019-06-15T02:15:05.132Z,19.70
2019-06-15T02:16:04.777Z,19.70
2019-06-15T02:17:04.672Z,19.70
2019-06-15T02:18:05.137Z,19.70
2019-06-15T02:19:05.039Z,19.70
2019-06-15T02:20:04.580Z,19.70
2019-06-15T02:21:05.078Z,19.70
2019-06-15T02:22:04.590Z,19.70
2019-06-15T02:23:04.478Z,19.60
2019-06-15T02:24:04.692Z,19.60
2019-06-15T02:25:05.029Z,19.60
2019-06-15T02:26:05.237Z,19.60
2019-06-15T02:27:05.064Z,19.60
2019-06-15T02:28:05.219Z,19.60
2019-06-15T02:29:04.641Z,19.50
2019-06-15T02:30:05.351Z,19.50
2019-06-15T02:31:04.459Z,19.50
2019-06-15T02:32:04.860Z,19.50
2019-06-15T02:33:04.959Z,19.50
2019-06-15T02:34:04.444Z,19.50
2019-06-15T02:35:05.028Z,19.40
2019-06-15T02:36:04.655Z,19.40
2019-06-15T02:37:04.346Z,19.40
2019-06-15T02:38:04.528Z,19.40
2019-06-15T02:39:04.870Z,19.40
2019-06-15T02:40:05.154Z,19.30
2019-06-15T02:41:04.387Z,19.30
2019-06-15T02:42:05.322Z,19.30
2019-06-15T02:43:04.803Z,19.30
2019-06-15T02:44:09.642Z,19.30
2019-06-15T02:45:04.431Z,19.30
2019-06-15T02:46:05.279Z,19.20
2019-06-15T02:47:04.519Z,19.20
2019-06-15T02:48:04.755Z,19.20
2019-06-15T02:49:05.203Z,19.20
2019-06-15T02:50:04.524Z,19.20
2019-06-15T02:51:04.945Z,19.20
2019-06-15T02:52:05.152Z,19.20
2019-06-15T02:53:04.663Z,19.10
2019-06-15T02:54:05.037Z,19.10
2019-06-15T02:55:04.661Z,19.10
2019-06-15T02:56:05.101Z,19.10
2019-06-15T02:57:04.763Z,19.10
2019-06-15T02:58:05.130Z,19.10
2019-06-15T02:59:04.989Z,19.10
2019-06-15T03:00:04.556Z,19.20
2019-06-15T03:01:04.794Z,19.20
2019-06-15T03:02:05.279Z,19.20
2019-06-15T03:03:04.474Z,19.20
2019-06-15T03:04:05.053Z,19.10
2019-06-15T03:05:05.129Z,19.10
2019-06-15T03:06:04.878Z,19.10
2019-06-15T03:07:04.421Z,19.10
2019-06-15T03:08:04.470Z,19.10
2019-06-15T03:09:05.117Z,19.10
2019-06-15T03:10:09.806Z,19.10
2019-06-15T03:11:04.517Z,19.10
2019-06-15T03:12:05.167Z,19.10
2019-06-15T03:13:04.503Z,19.10
2019-06-15T03:14:05.044Z,19.10
2019-06-15T03:15:05.117Z,19.10
2019-06-15T03:16:04.563Z,19.10
2019-06-15T03:17:04.580Z,19.10
2019-06-15T03:18:04.789Z,19.20
2019-06-15T03:19:05.119Z,19.20
2019-06-15T03:20:05.026Z,19.20
2019-06-15T03:21:05.237Z,19.20
2019-06-15T03:22:06.564Z,19.20
2019-06-15T03:23:04.425Z,19.20
2019-06-15T03:24:04.740Z,19.20
2019-06-15T03:25:04.747Z,19.30
2019-06-15T03:26:06.087Z,19.30
2019-06-15T03:27:05.151Z,19.30
2019-06-15T03:28:04.792Z,19.30
2019-06-15T03:29:05.148Z,19.30
2019-06-15T03:30:04.869Z,19.30
2019-06-15T03:31:05.256Z,19.30
2019-06-15T03:32:05.311Z,19.30
2019-06-15T03:33:04.994Z,19.30
2019-06-15T03:34:04.405Z,19.30
2019-06-15T03:35:04.623Z,19.40
2019-06-15T03:36:04.541Z,19.40
2019-06-15T03:37:05.021Z,19.40
2019-06-15T03:38:04.452Z,19.40
2019-06-15T03:39:04.671Z,19.40
2019-06-15T03:40:04.988Z,19.40
2019-06-15T03:41:05.313Z,19.40
2019-06-15T03:42:05.176Z,19.40
2019-06-15T03:43:05.365Z,19.40
2019-06-15T03:44:09.900Z,19.40
2019-06-15T03:45:04.463Z,19.40
2019-06-15T03:46:04.883Z,19.40
2019-06-15T03:47:05.026Z,19.40
2019-06-15T03:48:04.576Z,19.40
2019-06-15T03:49:05.221Z,19.50
2019-06-15T03:50:05.266Z,19.50
2019-06-15T03:51:04.931Z,19.50
2019-06-15T03:52:04.741Z,19.50
2019-06-15T03:53:04.780Z,19.50
2019-06-15T03:54:04.590Z,19.50
2019-06-15T03:55:04.651Z,19.60
2019-06-15T03:56:17.578Z,19.60
2019-06-15T03:57:05.039Z,19.60
2019-06-15T03:58:04.603Z,19.70
2019-06-15T03:59:05.269Z,19.70
2019-06-15T04:00:04.554Z,19.70
2019-06-15T04:01:05.311Z,19.70
2019-06-15T04:02:04.863Z,19.80
2019-06-15T04:03:04.851Z,19.80
2019-06-15T04:04:04.976Z,19.80
2019-06-15T04:05:04.834Z,19.90
2019-06-15T04:06:04.648Z,19.90
2019-06-15T04:07:05.148Z,19.90
2019-06-15T04:08:04.375Z,19.90
2019-06-15T04:09:04.990Z,20.00
2019-06-15T04:10:05.216Z,20.00
2019-06-15T04:11:04.579Z,20.00
2019-06-15T04:12:04.970Z,20.00
2019-06-15T04:13:04.806Z,20.10
2019-06-15T04:14:05.229Z,20.10
2019-06-15T04:15:04.949Z,20.10
2019-06-15T04:16:04.431Z,20.20
2019-06-15T04:17:04.896Z,20.20
2019-06-15T04:18:05.138Z,20.20
2019-06-15T04:19:05.153Z,20.20
2019-06-15T04:20:04.430Z,20.30
2019-06-15T04:21:04.764Z,20.30
2019-06-15T04:22:04.981Z,20.30
2019-06-15T04:23:05.138Z,20.30
2019-06-15T04:24:04.974Z,20.30
2019-06-15T04:25:04.949Z,20.30
2019-06-15T04:26:04.737Z,20.30
2019-06-15T04:27:04.938Z,20.40
2019-06-15T04:28:05.115Z,20.40
2019-06-15T04:29:04.642Z,20.40
2019-06-15T04:30:05.109Z,20.40
2019-06-15T04:31:04.511Z,20.40
2019-06-15T04:32:04.687Z,20.50
2019-06-15T04:33:04.703Z,20.50
2019-06-15T04:34:05.239Z,20.50
2019-06-15T04:35:04.569Z,20.50
2019-06-15T04:36:04.975Z,20.50
2019-06-15T04:37:04.632Z,20.60
2019-06-15T04:38:05.095Z,20.60
2019-06-15T04:39:04.557Z,20.60
2019-06-15T04:40:04.842Z,20.60
2019-06-15T04:41:05.109Z,20.60
2019-06-15T04:42:04.567Z,20.60
2019-06-15T04:43:04.897Z,20.70
2019-06-15T04:44:09.314Z,20.60
2019-06-15T04:45:05.175Z,20.70
2019-06-15T04:46:05.221Z,20.60
2019-06-15T04:47:04.494Z,20.60
2019-06-15T04:48:05.187Z,20.70
2019-06-15T04:49:04.420Z,20.70
2019-06-15T04:50:05.494Z,20.70
2019-06-15T04:51:04.642Z,20.70
2019-06-15T04:52:05.084Z,20.70
2019-06-15T04:53:04.634Z,20.70
2019-06-15T04:54:05.538Z,20.70
2019-06-15T04:55:04.591Z,20.80
2019-06-15T04:56:04.942Z,20.80
2019-06-15T04:57:04.740Z,20.80
2019-06-15T04:58:05.101Z,20.80
2019-06-15T04:59:04.599Z,20.80
2019-06-15T05:00:05.314Z,20.80
2019-06-15T05:01:04.719Z,20.80
2019-06-15T05:02:04.954Z,20.80
2019-06-15T05:03:04.521Z,20.90
2019-06-15T05:04:10.172Z,20.90
2019-06-15T05:05:04.764Z,20.90
2019-06-15T05:06:05.118Z,20.90
2019-06-15T05:07:05.347Z,20.90
2019-06-15T05:08:05.193Z,20.90
2019-06-15T05:09:04.555Z,20.90
2019-06-15T05:10:04.939Z,21.00
2019-06-15T05:11:04.426Z,21.00
2019-06-15T05:12:04.929Z,21.00
2019-06-15T05:13:05.404Z,21.00
2019-06-15T05:14:04.571Z,21.00
2019-06-15T05:15:04.591Z,21.10
2019-06-15T05:16:05.010Z,21.10
2019-06-15T05:17:04.902Z,21.10
2019-06-15T05:18:04.571Z,21.10
2019-06-15T05:19:04.875Z,21.10
2019-06-15T05:20:05.528Z,21.10
2019-06-15T05:21:04.602Z,21.20
2019-06-15T05:22:05.011Z,21.20
2019-06-15T05:23:04.574Z,21.20
2019-06-15T05:24:07.943Z,21.20
2019-06-15T05:25:04.434Z,21.20
2019-06-15T05:26:04.712Z,21.30
2019-06-15T05:27:06.496Z,21.30
2019-06-15T05:28:04.570Z,21.30
2019-06-15T05:29:04.977Z,21.30
2019-06-15T05:30:05.110Z,21.30
2019-06-15T05:31:05.317Z,21.30
2019-06-15T05:32:04.522Z,21.30
2019-06-15T05:33:04.778Z,21.40
2019-06-15T05:34:04.792Z,21.40
2019-06-15T05:35:04.766Z,21.50
2019-06-15T05:36:04.743Z,21.50
2019-06-15T05:37:05.153Z,21.60
2019-06-15T05:38:04.665Z,21.70
2019-06-15T05:39:04.578Z,21.80
2019-06-15T05:40:04.536Z,21.90
2019-06-15T05:41:05.052Z,22.10
2019-06-15T05:42:05.102Z,22.20
2019-06-15T05:43:04.770Z,22.40
2019-06-15T05:44:05.186Z,22.60
2019-06-15T05:45:04.861Z,22.80
2019-06-15T05:46:04.522Z,23.00
2019-06-15T05:47:04.274Z,23.20
2019-06-15T05:48:05.117Z,23.40
2019-06-15T05:49:05.142Z,23.70
2019-06-15T05:50:05.075Z,23.90
2019-06-15T05:51:04.752Z,24.10
2019-06-15T05:52:05.219Z,24.30
2019-06-15T05:53:05.215Z,24.50
2019-06-15T05:54:04.292Z,24.70
2019-06-15T05:55:04.875Z,24.90
2019-06-15T05:56:05.449Z,25.00
2019-06-15T05:57:05.340Z,25.20
2019-06-15T05:58:04.601Z,25.30
2019-06-15T05:59:04.780Z,25.50
2019-06-15T06:00:05.040Z,25.70
2019-06-15T06:01:09.674Z,25.90
2019-06-15T06:02:04.857Z,26.00
2019-06-15T06:03:05.246Z,26.20
2019-06-15T06:04:04.427Z,26.30
2019-06-15T06:05:05.111Z,26.40
2019-06-15T06:06:04.967Z,26.50
2019-06-15T06:07:05.144Z,26.60
2019-06-15T06:08:04.883Z,26.70
2019-06-15T06:09:04.431Z,26.80
2019-06-15T06:10:05.681Z,26.90
2019-06-15T06:11:05.205Z,27.00
2019-06-15T06:12:04.543Z,27.10
2019-06-15T06:13:04.985Z,27.20
2019-06-15T06:14:05.259Z,27.30
2019-06-15T06:15:04.431Z,27.40
2019-06-15T06:16:04.578Z,27.50
2019-06-15T06:17:05.539Z,27.60
2019-06-15T06:18:04.641Z,27.70
2019-06-15T06:19:04.442Z,27.70
2019-06-15T06:20:04.722Z,27.80
2019-06-15T06:21:04.457Z,27.90
2019-06-15T06:22:05.292Z,27.90
2019-06-15T06:23:04.914Z,28.00
2019-06-15T06:24:04.613Z,28.10
2019-06-15T06:25:04.609Z,28.10
2019-06-15T06:26:04.652Z,28.20
2019-06-15T06:27:04.474Z,28.30
2019-06-15T06:28:04.898Z,28.40
2019-06-15T06:29:04.283Z,28.40
2019-06-15T06:30:04.947Z,28.50
2019-06-15T06:31:04.557Z,28.50
2019-06-15T06:32:04.653Z,28.50
2019-06-15T06:33:04.449Z,28.50
2019-06-15T06:34:04.885Z,28.50
2019-06-15T06:35:04.523Z,28.50
2019-06-15T06:36:06.285Z,28.50
2019-06-15T06:37:05.271Z,28.40
2019-06-15T06:38:05.060Z,28.40
2019-06-15T06:39:04.450Z,28.30
2019-06-15T06:40:04.864Z,28.20
2019-06-15T06:41:04.699Z,28.20
2019-06-15T06:42:05.089Z,28.20
2019-06-15T06:43:05.235Z,28.20
2019-06-15T06:44:10.391Z,28.10
2019-06-15T06:45:05.086Z,28.10
2019-06-15T06:46:04.875Z,28.20
2019-06-15T06:47:05.130Z,28.20
2019-06-15T06:48:04.669Z,28.20
2019-06-15T06:49:04.733Z,28.30
2019-06-15T06:50:04.398Z,28.30
2019-06-15T06:51:04.856Z,28.40
2019-06-15T06:52:04.351Z,28.40
2019-06-15T06:53:05.321Z,28.50
2019-06-15T06:54:04.317Z,28.60
2019-06-15T06:55:04.799Z,28.60
2019-06-15T06:56:05.424Z,28.70
2019-06-15T06:57:04.598Z,28.70
2019-06-15T06:58:04.920Z,28.80
2019-06-15T06:59:05.427Z,28.90
2019-06-15T07:00:04.614Z,28.90
2019-06-15T07:01:05.426Z,28.90
2019-06-15T07:02:04.527Z,29.00
2019-06-15T07:03:04.346Z,29.00
2019-06-15T07:04:05.163Z,29.10
2019-06-15T07:05:05.041Z,29.20
2019-06-15T07:06:04.509Z,29.20
2019-06-15T07:07:05.374Z,29.30
2019-06-15T07:08:04.841Z,29.40
2019-06-15T07:09:09.344Z,29.50
2019-06-15T07:10:05.241Z,29.60
2019-06-15T07:11:04.697Z,29.70
2019-06-15T07:12:05.128Z,29.80
2019-06-15T07:13:04.309Z,29.80
2019-06-15T07:14:04.581Z,29.90
2019-06-15T07:15:05.078Z,30.00
2019-06-15T07:16:04.483Z,30.00
2019-06-15T07:17:05.363Z,30.10
2019-06-15T07:18:05.161Z,30.20
2019-06-15T07:19:04.693Z,30.20
2019-06-15T07:20:04.947Z,30.30
2019-06-15T07:21:05.369Z,30.30
2019-06-15T07:22:05.077Z,30.30
2019-06-15T07:23:04.495Z,30.40
2019-06-15T07:24:04.720Z,30.40
2019-06-15T07:25:04.612Z,30.50
2019-06-15T07:26:05.302Z,30.50
2019-06-15T07:27:04.416Z,30.50
2019-06-15T07:28:08.210Z,30.50
2019-06-15T07:29:04.360Z,30.50
2019-06-15T07:30:04.602Z,30.50
2019-06-15T07:31:05.061Z,30.50
2019-06-15T07:32:04.433Z,30.40
2019-06-15T07:33:04.680Z,30.40
2019-06-15T07:34:04.574Z,30.30
2019-06-15T07:35:05.268Z,30.20
2019-06-15T07:36:05.094Z,30.10
2019-06-15T07:37:04.907Z,30.00
2019-06-15T07:38:04.819Z,29.90
2019-06-15T07:39:05.254Z,29.80
2019-06-15T07:40:04.439Z,29.70
2019-06-15T07:41:04.670Z,29.70
2019-06-15T07:42:04.359Z,29.60
2019-06-15T07:43:05.233Z,29.50
2019-06-15T07:44:10.174Z,29.50
2019-06-15T07:45:04.950Z,29.40
2019-06-15T07:46:04.745Z,29.40
2019-06-15T07:47:04.944Z,29.40
2019-06-15T07:48:05.345Z,29.30
2019-06-15T07:49:05.085Z,29.30
2019-06-15T07:50:04.954Z,29.40
2019-06-15T07:51:05.381Z,29.40
2019-06-15T07:52:04.545Z,29.50
2019-06-15T07:53:04.385Z,29.50
2019-06-15T07:54:04.966Z,29.60
2019-06-15T07:55:04.637Z,29.70
2019-06-15T07:56:05.388Z,29.80
2019-06-15T07:57:05.195Z,29.80
2019-06-15T07:58:04.601Z,29.80
2019-06-15T07:59:04.526Z,29.80
2019-06-15T08:00:04.541Z,29.80
2019-06-15T08:01:05.395Z,29.90
2019-06-15T08:02:04.614Z,29.90
2019-06-15T08:03:04.891Z,29.90
2019-06-15T08:04:10.265Z,29.90
2019-06-15T08:05:05.099Z,29.90
2019-06-15T08:06:05.191Z,29.90
2019-06-15T08:07:05.216Z,29.90
2019-06-15T08:08:04.737Z,29.90
2019-06-15T08:09:04.942Z,29.90
2019-06-15T08:10:04.933Z,29.90
2019-06-15T08:11:05.319Z,30.00
2019-06-15T08:12:04.753Z,30.00
2019-06-15T08:13:04.596Z,30.00
2019-06-15T08:14:05.139Z,30.00
2019-06-15T08:15:04.342Z,30.10
2019-06-15T08:16:05.526Z,30.10
2019-06-15T08:17:04.807Z,30.10
2019-06-15T08:18:04.965Z,30.20
2019-06-15T08:19:04.646Z,30.20
2019-06-15T08:20:05.347Z,30.20
2019-06-15T08:21:04.667Z,30.30
2019-06-15T08:22:04.484Z,30.30
2019-06-15T08:23:05.249Z,30.30
2019-06-15T08:24:05.061Z,30.30
2019-06-15T08:25:04.937Z,30.30
2019-06-15T08:26:04.531Z,30.40
2019-06-15T08:27:05.226Z,30.40
2019-06-15T08:28:04.736Z,30.40
2019-06-15T08:29:04.618Z,30.40
2019-06-15T08:30:04.595Z,30.40
2019-06-15T08:31:05.094Z,30.40
2019-06-15T08:32:04.992Z,30.40
2019-06-15T08:33:04.901Z,30.40
2019-06-15T08:34:05.309Z,30.40
2019-06-15T08:35:04.568Z,30.40
2019-06-15T08:36:05.337Z,30.40
2019-06-15T08:37:04.662Z,30.40
2019-06-15T08:38:04.659Z,30.40
2019-06-15T08:39:04.571Z,30.40
2019-06-15T08:40:04.999Z,30.40
2019-06-15T08:41:04.724Z,30.40
2019-06-15T08:42:04.985Z,30.40
2019-06-15T08:43:04.754Z,30.50
2019-06-15T08:44:15.135Z,30.50
2019-06-15T08:45:04.696Z,30.50
2019-06-15T08:46:05.267Z,30.50
2019-06-15T08:47:04.954Z,30.50
2019-06-15T08:48:04.311Z,30.60
2019-06-15T08:49:05.482Z,30.60
2019-06-15T08:50:05.123Z,30.60
2019-06-15T08:51:04.994Z,30.60
2019-06-15T08:52:04.996Z,30.60
2019-06-15T08:53:04.682Z,30.60
2019-06-15T08:54:04.874Z,30.60
2019-06-15T08:55:05.309Z,30.60
2019-06-15T08:56:04.971Z,30.70
2019-06-15T08:57:04.618Z,30.70
2019-06-15T08:58:04.604Z,30.70
2019-06-15T08:59:04.467Z,30.70
2019-06-15T09:00:04.321Z,30.80
2019-06-15T09:01:04.515Z,30.80
2019-06-15T09:02:04.818Z,30.80
2019-06-15T09:03:05.127Z,30.80
2019-06-15T09:04:05.380Z,30.80
2019-06-15T09:05:04.779Z,30.80
2019-06-15T09:06:04.994Z,30.80
2019-06-15T09:07:04.671Z,30.80
2019-06-15T09:08:04.872Z,30.80
2019-06-15T09:09:05.354Z,30.80
2019-06-15T09:10:04.363Z,30.80
2019-06-15T09:11:05.199Z,30.80
2019-06-15T09:12:04.702Z,30.80
2019-06-15T09:13:05.204Z,30.80
2019-06-15T09:14:05.390Z,30.80
2019-06-15T09:15:04.850Z,30.80
2019-06-15T09:16:05.348Z,30.80
2019-06-15T09:17:04.735Z,30.80
2019-06-15T09:18:05.166Z,30.80
2019-06-15T09:19:04.699Z,30.80
2019-06-15T09:20:05.442Z,30.80
2019-06-15T09:21:05.131Z,30.80
2019-06-15T09:22:05.044Z,30.80
2019-06-15T09:23:05.227Z,30.80
2019-06-15T09:24:04.490Z,30.80
2019-06-15T09:25:04.592Z,30.80
2019-06-15T09:26:04.880Z,30.80
2019-06-15T09:27:04.650Z,30.80
2019-06-15T09:28:05.023Z,30.80
2019-06-15T09:29:11.049Z,30.80
2019-06-15T09:30:04.649Z,30.80
2019-06-15T09:31:05.195Z,30.80
2019-06-15T09:32:04.407Z,30.80
2019-06-15T09:33:05.032Z,30.80
2019-06-15T09:34:17.975Z,30.80
2019-06-15T09:35:05.065Z,30.80
2019-06-15T09:36:04.686Z,30.80
2019-06-15T09:37:04.447Z,30.80
2019-06-15T09:38:04.914Z,30.80
2019-06-15T09:39:05.441Z,30.90
2019-06-15T09:40:04.361Z,30.80
2019-06-15T09:41:04.875Z,30.80
2019-06-15T09:42:04.345Z,30.80
2019-06-15T09:43:04.534Z,30.80
2019-06-15T09:44:09.883Z,30.80
2019-06-15T09:45:04.718Z,30.80
2019-06-15T09:46:04.799Z,30.80
2019-06-15T09:47:05.260Z,30.70
2019-06-15T09:48:04.885Z,30.70
2019-06-15T09:49:05.097Z,30.70
2019-06-15T09:50:04.229Z,30.70
2019-06-15T09:51:04.766Z,30.70
2019-06-15T09:52:05.142Z,30.70
2019-06-15T09:53:04.799Z,30.70
2019-06-15T09:54:05.315Z,30.60
2019-06-15T09:55:05.350Z,30.60
2019-06-15T09:56:04.463Z,30.60
2019-06-15T09:57:04.747Z,30.60
2019-06-15T09:58:05.249Z,30.60
2019-06-15T09:59:04.753Z,30.60
2019-06-15T10:00:05.217Z,30.60
2019-06-15T10:01:04.605Z,30.60
2019-06-15T10:02:04.848Z,30.60
2019-06-15T10:03:05.544Z,30.60
2019-06-15T10:04:04.727Z,30.50
2019-06-15T10:05:05.199Z,30.50
2019-06-15T10:06:05.678Z,30.50
2019-06-15T10:07:04.524Z,30.50
2019-06-15T10:08:05.085Z,30.50
2019-06-15T10:09:04.851Z,30.50
2019-06-15T10:10:05.167Z,30.50
2019-06-15T10:11:05.040Z,30.50
2019-06-15T10:12:05.275Z,30.50
2019-06-15T10:13:04.893Z,30.50
2019-06-15T10:14:04.529Z,30.50
2019-06-15T10:15:05.416Z,30.50
2019-06-15T10:16:05.128Z,30.50
2019-06-15T10:17:04.622Z,30.50
2019-06-15T10:18:04.633Z,30.50
2019-06-15T10:19:05.397Z,30.50
2019-06-15T10:20:04.567Z,30.40
2019-06-15T10:21:04.968Z,30.40
2019-06-15T10:22:05.390Z,30.40
2019-06-15T10:23:05.535Z,30.40
2019-06-15T10:24:04.722Z,30.40
2019-06-15T10:25:04.944Z,30.40
2019-06-15T10:26:04.655Z,30.40
2019-06-15T10:27:05.086Z,30.40
2019-06-15T10:28:05.275Z,30.40
2019-06-15T10:29:05.270Z,30.40
2019-06-15T10:30:04.637Z,30.40
2019-06-15T10:31:04.628Z,30.40
2019-06-15T10:32:05.303Z,30.40
2019-06-15T10:33:04.427Z,30.40
2019-06-15T10:34:04.683Z,30.40
2019-06-15T10:35:05.135Z,30.40
2019-06-15T10:36:04.696Z,30.40
2019-06-15T10:37:04.501Z,30.40
2019-06-15T10:38:04.782Z,30.40
2019-06-15T10:39:04.952Z,30.40
2019-06-15T10:40:04.533Z,30.40
2019-06-15T10:41:04.748Z,30.40
2019-06-15T10:42:04.877Z,30.40
2019-06-15T10:43:05.089Z,30.40
2019-06-15T10:44:04.502Z,30.40
2019-06-15T10:45:05.210Z,30.40
2019-06-15T10:46:04.527Z,30.40
2019-06-15T10:47:05.043Z,30.40
2019-06-15T10:48:05.094Z,30.40
2019-06-15T10:49:04.437Z,30.40
2019-06-15T10:50:04.776Z,30.40
2019-06-15T10:51:10.173Z,30.30
2019-06-15T10:52:04.885Z,30.30
2019-06-15T10:53:05.315Z,30.30
2019-06-15T10:54:04.718Z,30.30
2019-06-15T10:55:05.434Z,30.20
2019-06-15T10:56:04.799Z,30.20
2019-06-15T10:57:04.829Z,30.20
2019-06-15T10:58:05.458Z,30.20
2019-06-15T10:59:05.386Z,30.20
2019-06-15T11:00:05.095Z,30.20
2019-06-15T11:01:05.135Z,30.30
2019-06-15T11:02:04.805Z,30.20
2019-06-15T11:03:05.247Z,30.20
2019-06-15T11:04:04.878Z,30.20
2019-06-15T11:05:05.260Z,30.20
2019-06-15T11:06:04.670Z,30.20
2019-06-15T11:07:04.776Z,30.20
2019-06-15T11:08:05.193Z,30.10
2019-06-15T11:09:04.873Z,30.10
2019-06-15T11:10:04.433Z,30.10
2019-06-15T11:11:05.371Z,30.20
2019-06-15T11:12:04.915Z,30.20
2019-06-15T11:13:04.972Z,30.10
2019-06-15T11:14:04.476Z,30.20
2019-06-15T11:15:05.152Z,30.20
2019-06-15T11:16:05.314Z,30.20
2019-06-15T11:17:04.849Z,30.20
2019-06-15T11:18:05.445Z,30.20
2019-06-15T11:19:04.307Z,30.20
2019-06-15T11:20:05.331Z,30.20
2019-06-15T11:21:04.845Z,30.20
2019-06-15T11:22:05.255Z,30.20
2019-06-15T11:23:04.946Z,30.20
2019-06-15T11:24:05.068Z,30.20
2019-06-15T11:25:05.161Z,30.30
2019-06-15T11:26:04.694Z,30.30
2019-06-15T11:27:05.493Z,30.40
2019-06-15T11:28:05.544Z,30.40
2019-06-15T11:29:05.560Z,30.40
2019-06-15T11:30:12.797Z,30.40
2019-06-15T11:31:04.377Z,30.40
2019-06-15T11:32:04.478Z,30.40
2019-06-15T11:33:05.329Z,30.40
2019-06-15T11:34:04.564Z,30.40
2019-06-15T11:35:05.337Z,30.40
2019-06-15T11:36:05.308Z,30.40
2019-06-15T11:37:04.967Z,30.40
2019-06-15T11:38:05.253Z,30.30
2019-06-15T11:39:05.538Z,30.30
2019-06-15T11:40:05.135Z,30.30
2019-06-15T11:41:05.107Z,30.30
2019-06-15T11:42:04.917Z,30.30
2019-06-15T11:43:04.565Z,30.30
2019-06-15T11:44:09.719Z,30.30
2019-06-15T11:45:04.563Z,30.30
2019-06-15T11:46:04.594Z,30.20
2019-06-15T11:47:04.875Z,30.20
2019-06-15T11:48:05.400Z,30.10
2019-06-15T11:49:04.924Z,30.10
2019-06-15T11:50:05.385Z,30.10
2019-06-15T11:51:04.614Z,30.10
2019-06-15T11:52:04.966Z,30.10
2019-06-15T11:53:04.994Z,30.10
2019-06-15T11:54:04.370Z,30.10
2019-06-15T11:55:04.964Z,30.00
2019-06-15T11:56:04.411Z,30.00
2019-06-15T11:57:05.144Z,30.00
2019-06-15T11:58:04.481Z,30.00
2019-06-15T11:59:04.756Z,30.00
2019-06-15T12:00:04.895Z,30.00
2019-06-15T12:01:05.028Z,30.00
2019-06-15T12:02:04.785Z,30.00
2019-06-15T12:03:05.184Z,30.00
2019-06-15T12:04:04.570Z,30.00
2019-06-15T12:05:04.625Z,30.10
2019-06-15T12:06:05.123Z,30.10
2019-06-15T12:07:05.562Z,30.10
2019-06-15T12:08:05.072Z,30.20
2019-06-15T12:09:04.341Z,30.20
2019-06-15T12:10:04.685Z,30.20
2019-06-15T12:11:05.195Z,30.30
2019-06-15T12:12:04.395Z,30.30
2019-06-15T12:13:05.196Z,30.30
2019-06-15T12:14:04.658Z,30.30
2019-06-15T12:15:05.289Z,30.40
2019-06-15T12:16:04.760Z,30.30
2019-06-15T12:17:05.504Z,30.30
2019-06-15T12:18:05.133Z,30.30
2019-06-15T12:19:05.341Z,30.30
2019-06-15T12:20:05.102Z,30.30
2019-06-15T12:21:04.832Z,30.30
2019-06-15T12:22:05.086Z,30.30
2019-06-15T12:23:04.964Z,30.40
2019-06-15T12:24:05.374Z,30.40
2019-06-15T12:25:04.501Z,30.40
2019-06-15T12:26:04.677Z,30.30
2019-06-15T12:27:04.887Z,30.30
2019-06-15T12:28:04.651Z,30.30
2019-06-15T12:29:07.094Z,30.30
2019-06-15T12:30:04.765Z,30.30
2019-06-15T12:31:05.020Z,30.30
2019-06-15T12:32:05.177Z,30.30
2019-06-15T12:33:04.390Z,30.30
2019-06-15T12:34:04.857Z,30.30
2019-06-15T12:35:05.093Z,30.20
2019-06-15T12:36:18.249Z,30.20
2019-06-15T12:37:05.180Z,30.20
2019-06-15T12:38:04.807Z,30.20
2019-06-15T12:39:04.834Z,30.10
2019-06-15T12:40:05.156Z,30.10
2019-06-15T12:41:04.855Z,30.10
2019-06-15T12:42:04.398Z,30.00
2019-06-15T12:43:04.858Z,30.00
2019-06-15T12:44:09.344Z,29.90
2019-06-15T12:45:04.907Z,29.90
2019-06-15T12:46:04.740Z,29.90
2019-06-15T12:47:04.630Z,29.80
2019-06-15T12:48:04.955Z,29.80
2019-06-15T12:49:04.521Z,29.80
2019-06-15T12:50:04.783Z,29.80
2019-06-15T12:51:04.884Z,29.80
2019-06-15T12:52:04.620Z,29.80